createdAt,value
2019-01-13T07:11:54.718Z,12.67
2019-01-13T07:14:27.414Z,11.80
2019-01-13T07:17:00.078Z,11.47
2019-01-13T07:19:32.743Z,11.60
2019-01-13T07:22:05.427Z,10.17
2019-01-13T07:24:38.090Z,9.23
2019-01-13T07:27:10.999Z,9.07
2019-01-13T07:29:43.709Z,8.87
2019-01-13T07:32:16.601Z,7.53
2019-01-13T07:34:49.282Z,6.97
2019-01-13T07:37:21.969Z,6.43
2019-01-13T07:39:54.644Z,6.80
2019-01-13T07:42:27.027Z,6.70
2019-01-13T07:44:59.714Z,6.57
2019-01-13T07:47:32.403Z,6.43
2019-01-13T07:50:06.534Z,5.50
2019-01-13T07:52:39.188Z,6.67
2019-01-13T07:55:13.938Z,6.80
2019-01-13T07:57:46.599Z,6.47
2019-01-13T08:00:30.306Z,6.97
2019-01-13T08:03:04.400Z,6.60
2019-01-13T08:05:37.082Z,7.03
2019-01-13T08:08:09.990Z,6.40
2019-01-13T08:10:42.674Z,7.47
2019-01-13T08:13:15.342Z,6.87
2019-01-13T08:15:48.011Z,7.10
2019-01-13T08:18:20.909Z,6.37
2019-01-13T08:20:53.586Z,7.00
2019-01-13T08:23:26.272Z,7.87
2019-01-13T08:25:59.398Z,7.33
2019-01-13T08:28:32.091Z,8.13
2019-01-13T08:31:04.765Z,7.57
2019-01-13T08:33:37.901Z,7.77
2019-01-13T08:36:10.574Z,7.57
2019-01-13T08:38:43.237Z,8.03
2019-01-13T08:41:15.626Z,8.30
2019-01-13T08:43:48.283Z,8.30
2019-01-13T08:46:20.998Z,8.00
2019-01-13T08:48:53.662Z,8.13
2019-01-13T08:51:26.347Z,8.20
2019-01-13T08:53:59.018Z,8.70
2019-01-13T08:56:31.958Z,8.63
2019-01-13T08:59:04.610Z,8.50
2019-01-13T09:01:37.285Z,8.80
2019-01-13T09:04:10.240Z,9.20
2019-01-13T09:06:42.913Z,8.67
2019-01-13T09:09:15.581Z,9.80
2019-01-13T09:11:48.246Z,9.87
2019-01-13T09:14:20.902Z,10.50
2019-01-13T09:16:53.570Z,10.17
2019-01-13T09:19:26.237Z,11.43
2019-01-13T09:21:58.913Z,12.30
2019-01-13T09:24:31.578Z,11.43
2019-01-13T09:27:04.254Z,11.50
2019-01-13T09:29:42.443Z,12.03
2019-01-13T09:32:11.543Z,12.97
2019-01-13T09:34:44.217Z,12.23
2019-01-13T09:37:16.902Z,13.50
2019-01-13T09:39:49.274Z,12.80
2019-01-13T09:42:21.950Z,13.23
2019-01-13T09:44:54.610Z,14.20
2019-01-13T09:47:27.318Z,13.77
2019-01-13T09:50:00.095Z,14.87
2019-01-13T09:52:32.836Z,14.90
2019-01-13T09:55:06.679Z,14.87
2019-01-13T09:57:39.378Z,16.23
2019-01-13T10:00:23.825Z,17.20
2019-01-13T10:02:56.502Z,16.70
2019-01-13T10:05:29.170Z,17.87
2019-01-13T10:08:01.878Z,17.77
2019-01-13T10:10:34.556Z,19.10
2019-01-13T10:13:07.223Z,18.67
2019-01-13T10:15:39.876Z,18.93
2019-01-13T10:18:12.557Z,20.50
2019-01-13T10:20:45.233Z,20.57
2019-01-13T10:23:17.938Z,22.97
2019-01-13T10:25:50.607Z,22.70
2019-01-13T10:28:23.290Z,22.90
2019-01-13T10:31:02.982Z,22.70
2019-01-13T10:33:30.334Z,23.80
2019-01-13T10:36:02.727Z,23.17
2019-01-13T10:38:35.426Z,22.83
2019-01-13T10:41:08.323Z,22.93
2019-01-13T10:43:41.043Z,21.27
2019-01-13T10:46:13.691Z,22.03
2019-01-13T10:48:46.395Z,22.87
2019-01-13T10:51:19.290Z,22.37
2019-01-13T10:53:51.982Z,21.93
2019-01-13T10:56:24.675Z,21.10
2019-01-13T10:58:57.709Z,19.87
2019-01-13T11:01:30.366Z,19.83
2019-01-13T11:04:03.302Z,21.37
2019-01-13T11:06:35.958Z,20.07
2019-01-13T11:09:09.470Z,20.60
2019-01-13T11:11:42.119Z,21.87
2019-01-13T11:14:14.794Z,21.83
2019-01-13T11:16:47.472Z,21.83
2019-01-13T11:19:20.139Z,21.87
2019-01-13T11:21:52.819Z,22.80
2019-01-13T11:24:25.501Z,22.47
2019-01-13T11:26:58.156Z,22.47
2019-01-13T11:29:32.762Z,23.20
2019-01-13T11:32:05.222Z,22.70
2019-01-13T11:34:37.878Z,23.63
2019-01-13T11:37:10.546Z,20.80
2019-01-13T11:39:43.263Z,21.43
2019-01-13T11:42:16.203Z,21.53
2019-01-13T11:44:48.961Z,19.37
2019-01-13T11:47:21.626Z,19.43
2019-01-13T11:49:54.302Z,19.77
2019-01-13T11:52:26.970Z,18.63
2019-01-13T11:54:59.735Z,17.47
2019-01-13T11:57:32.399Z,17.40
2019-01-13T12:00:11.902Z,18.40
2019-01-13T12:02:44.559Z,16.87
2019-01-13T12:05:17.249Z,17.10
2019-01-13T12:07:49.935Z,16.80
2019-01-13T12:10:22.634Z,15.93
2019-01-13T12:12:55.303Z,15.07
2019-01-13T12:15:28.185Z,15.83
2019-01-13T12:18:00.858Z,14.30
2019-01-13T12:20:33.573Z,14.27
2019-01-13T12:23:06.242Z,13.37
2019-01-13T12:25:38.914Z,13.50
2019-01-13T12:28:11.826Z,11.97
2019-01-13T12:30:44.510Z,11.87
2019-01-13T12:33:24.307Z,9.73
2019-01-13T12:35:51.602Z,10.73
2019-01-13T12:38:24.262Z,10.20
2019-01-13T12:40:57.191Z,10.13
2019-01-13T12:43:29.922Z,10.00
2019-01-13T12:46:02.601Z,9.30
2019-01-13T12:48:35.262Z,9.17
2019-01-13T12:51:07.936Z,9.83
2019-01-13T12:53:40.634Z,8.47
2019-01-13T12:56:13.597Z,8.17
2019-01-13T12:58:46.486Z,8.03
2019-01-13T13:01:19.177Z,8.27
2019-01-13T13:03:51.831Z,7.23
2019-01-13T13:06:24.519Z,7.07
2019-01-13T13:08:57.178Z,6.70
2019-01-13T13:11:29.895Z,6.60
2019-01-13T13:14:02.563Z,6.70
2019-01-13T13:16:35.524Z,6.83
2019-01-13T13:19:08.190Z,7.00
2019-01-13T13:21:40.866Z,6.53
2019-01-13T13:24:13.520Z,6.70
2019-01-13T13:26:46.205Z,7.13
2019-01-13T13:29:18.862Z,6.13
2019-01-13T13:31:51.518Z,6.40
2019-01-13T13:34:24.189Z,5.93
2019-01-13T13:36:56.866Z,5.77
2019-01-13T13:39:29.555Z,6.50
2019-01-13T13:42:02.266Z,6.70
2019-01-13T13:44:34.935Z,6.27
2019-01-13T13:47:07.621Z,6.37
2019-01-13T13:49:40.278Z,5.97
2019-01-13T13:52:12.982Z,6.00
2019-01-13T13:54:45.642Z,6.87
2019-01-13T13:57:18.328Z,5.73
2019-01-13T13:59:50.970Z,5.27
2019-01-13T14:02:23.638Z,6.00
2019-01-13T14:04:56.286Z,6.33
2019-01-13T14:07:28.987Z,6.23
2019-01-13T14:10:01.644Z,6.47
2019-01-13T14:12:34.364Z,6.10
2019-01-13T14:15:07.696Z,6.60
2019-01-13T14:17:40.518Z,6.17
2019-01-13T14:20:14.809Z,6.60
2019-01-13T14:22:47.742Z,6.03
2019-01-13T14:25:20.410Z,6.00
2019-01-13T14:27:53.103Z,6.20
2019-01-13T14:30:26.146Z,5.90
2019-01-13T14:32:58.808Z,5.83
2019-01-13T14:35:31.467Z,5.90
2019-01-13T14:38:04.259Z,6.27
2019-01-13T14:40:36.909Z,6.27
2019-01-13T14:43:09.606Z,6.03
2019-01-13T14:45:42.251Z,6.07
2019-01-13T14:48:14.950Z,6.10
2019-01-13T14:50:47.626Z,6.50
2019-01-13T14:53:20.490Z,6.83
2019-01-13T14:55:53.173Z,7.60
2019-01-13T14:58:25.898Z,7.43
2019-01-13T15:00:58.564Z,7.57
2019-01-13T15:03:31.250Z,8.53
2019-01-13T15:06:03.919Z,7.73
2019-01-13T15:08:36.902Z,8.13
2019-01-13T15:11:09.563Z,8.70
2019-01-13T15:13:42.301Z,8.80
2019-01-13T15:16:14.955Z,9.03
2019-01-13T15:18:47.674Z,8.37
2019-01-13T15:21:20.340Z,9.20
2019-01-13T15:23:53.378Z,9.70
2019-01-13T15:26:26.058Z,9.40
2019-01-13T15:28:58.738Z,10.87
2019-01-13T15:31:31.414Z,10.43
2019-01-13T15:34:07.362Z,10.70
2019-01-13T15:36:38.534Z,10.90
2019-01-13T15:39:11.215Z,10.73
2019-01-13T15:41:43.884Z,12.03
2019-01-13T15:44:16.574Z,12.33
2019-01-13T15:46:49.470Z,13.00
2019-01-13T15:49:22.155Z,13.50
2019-01-13T15:51:54.946Z,14.47
2019-01-13T15:54:27.891Z,14.73
2019-01-13T15:57:00.577Z,15.67
2019-01-13T15:59:33.271Z,14.77
2019-01-13T16:02:05.931Z,16.03
2019-01-13T16:04:38.626Z,15.63
2019-01-13T16:07:11.309Z,15.47
2019-01-13T16:09:44.006Z,15.10
2019-01-13T16:12:16.672Z,14.80
2019-01-13T16:14:49.369Z,15.13
2019-01-13T16:17:22.051Z,14.43
2019-01-13T16:19:54.738Z,15.10
2019-01-13T16:22:27.438Z,15.23
2019-01-13T16:25:00.234Z,14.07
2019-01-13T16:27:32.902Z,13.43
2019-01-13T16:30:09.256Z,13.47
2019-01-13T16:32:41.942Z,14.57
2019-01-13T16:35:14.621Z,13.40
2019-01-13T16:37:47.410Z,11.40
2019-01-13T16:40:21.770Z,12.50
2019-01-13T16:42:54.455Z,12.87
2019-01-13T16:45:27.126Z,14.00
2019-01-13T16:48:00.082Z,13.63
2019-01-13T16:50:32.771Z,12.47
2019-01-13T16:53:06.011Z,12.17
2019-01-13T16:55:38.992Z,12.30
2019-01-13T16:58:11.706Z,13.83
2019-01-13T17:00:44.636Z,13.03
2019-01-13T17:03:17.302Z,13.30
2019-01-13T17:05:49.990Z,13.60
2019-01-13T17:08:22.658Z,13.23
2019-01-13T17:10:55.339Z,13.57
2019-01-13T17:13:28.002Z,13.67
2019-01-13T17:16:00.670Z,13.97
2019-01-13T17:18:33.332Z,12.43
2019-01-13T17:21:06.020Z,13.23
2019-01-13T17:23:38.687Z,13.90
2019-01-13T17:26:11.430Z,16.10
2019-01-13T17:28:44.110Z,13.20
2019-01-13T17:31:16.883Z,13.57
2019-01-13T17:33:49.551Z,12.53
2019-01-13T17:36:22.246Z,12.77
2019-01-13T17:38:55.654Z,12.37
2019-01-13T17:41:28.628Z,11.80
2019-01-13T17:44:01.542Z,12.27
2019-01-13T17:46:34.268Z,12.43
2019-01-13T17:49:06.922Z,11.30
2019-01-13T17:51:39.710Z,12.47
2019-01-13T17:54:12.423Z,11.07
2019-01-13T17:56:45.262Z,12.17
2019-01-13T17:59:17.920Z,11.77
2019-01-13T18:01:53.899Z,12.80
2019-01-13T18:04:26.596Z,12.80
2019-01-13T18:06:59.398Z,12.00
2019-01-13T18:09:32.078Z,11.67
2019-01-13T18:12:04.822Z,11.50
2019-01-13T18:14:37.478Z,8.20
2019-01-13T18:17:10.162Z,5.97
2019-01-13T18:19:42.837Z,4.67
2019-01-13T18:22:15.514Z,4.47
2019-01-13T18:24:48.162Z,4.53
2019-01-13T18:27:20.867Z,4.60
2019-01-13T18:29:53.559Z,4.70
2019-01-13T18:32:26.346Z,4.17
2019-01-13T18:34:59.010Z,4.80
2019-01-13T18:37:31.711Z,5.20
2019-01-13T18:40:05.771Z,5.73
2019-01-13T18:42:38.469Z,6.80
2019-01-13T18:45:11.166Z,7.00
2019-01-13T18:47:43.947Z,7.63
2019-01-13T18:50:17.634Z,7.77
2019-01-13T18:52:56.345Z,7.40
2019-01-13T18:55:29.051Z,7.27
2019-01-13T18:58:02.188Z,6.50
2019-01-13T19:00:35.438Z,7.43
2019-01-13T19:03:08.158Z,6.30
2019-01-13T19:05:40.848Z,6.30
2019-01-13T19:08:13.750Z,5.90
2019-01-13T19:10:59.829Z,5.70
2019-01-13T19:13:44.734Z,5.10
2019-01-13T19:16:18.014Z,4.80
2019-01-13T19:18:50.711Z,4.67
2019-01-13T19:21:23.395Z,4.27
2019-01-13T19:23:56.061Z,4.00
2019-01-13T19:26:28.715Z,3.83
2019-01-13T19:29:01.830Z,3.80
2019-01-13T19:31:34.737Z,3.80
2019-01-13T19:34:07.455Z,3.50
2019-01-13T19:36:40.174Z,4.17
2019-01-13T19:39:13.090Z,3.07
2019-01-13T19:41:45.743Z,3.20
2019-01-13T19:44:18.546Z,2.63
2019-01-13T19:46:51.219Z,3.00
2019-01-13T19:49:24.159Z,3.00
2019-01-13T19:51:56.832Z,3.10
2019-01-13T19:54:29.731Z,3.43
2019-01-13T19:57:02.631Z,2.90
2019-01-13T19:59:35.311Z,2.50
2019-01-13T20:02:07.984Z,1.83
2019-01-13T20:04:40.646Z,2.80
2019-01-13T20:07:13.320Z,3.77
2019-01-13T20:09:46.026Z,2.70
2019-01-13T20:12:18.699Z,2.87
2019-01-13T20:14:51.678Z,2.50
2019-01-13T20:17:24.337Z,2.50
2019-01-13T20:19:58.136Z,2.20
2019-01-13T20:22:30.789Z,2.80
